sensor_id;sensor_type;location;lat;lon;timestamp;pressure;altitude;pressure_sealevel;temperature;humidity
42855;BME280;29183;48.038;14.346;2022-08-19T00:00:10;96947.88;;;17.59;100.00
42855;BME280;29183;48.038;14.346;2022-08-19T00:02:38;96939.00;;;17.78;100.00
42855;BME280;29183;48.038;14.346;2022-08-19T00:05:18;96934.59;;;17.71;100.00
42855;BME280;29183;48.038;14.346;2022-08-19T00:07:47;96943.69;;;17.67;100.00
42855;BME280;29183;48.038;14.346;2022-08-19T00:10:16;96958.13;;;17.61;100.00
42855;BME280;29183;48.038;14.346;2022-08-19T00:12:45;96954.94;;;17.41;100.00
42855;BME280;29183;48.038;14.346;2022-08-19T00:15:16;96951.69;;;17.39;100.00
42855;BME280;29183;48.038;14.346;2022-08-19T00:17:45;96946.47;;;17.39;100.00
42855;BME280;29183;48.038;14.346;2022-08-19T00:20:15;96950.06;;;17.38;100.00
42855;BME280;29183;48.038;14.346;2022-08-19T00:22:45;96954.88;;;17.33;100.00
42855;BME280;29183;48.038;14.346;2022-08-19T00:25:15;96953.69;;;17.19;100.00
42855;BME280;29183;48.038;14.346;2022-08-19T00:27:56;96960.09;;;17.06;100.00
42855;BME280;29183;48.038;14.346;2022-08-19T00:30:25;96970.28;;;16.99;100.00
42855;BME280;29183;48.038;14.346;2022-08-19T00:32:56;96982.78;;;16.96;100.00
42855;BME280;29183;48.038;14.346;2022-08-19T00:35:24;96995.06;;;17.04;100.00
42855;BME280;29183;48.038;14.346;2022-08-19T00:37:53;96990.97;;;17.01;100.00
42855;BME280;29183;48.038;14.346;2022-08-19T00:40:22;96987.16;;;17.13;100.00
42855;BME280;29183;48.038;14.346;2022-08-19T00:42:50;96986.47;;;17.29;100.00
42855;BME280;29183;48.038;14.346;2022-08-19T00:45:23;96994.09;;;17.31;100.00
42855;BME280;29183;48.038;14.346;2022-08-19T00:47:53;96994.84;;;17.23;100.00
42855;BME280;29183;48.038;14.346;2022-08-19T00:50:22;96986.69;;;17.18;100.00
42855;BME280;29183;48.038;14.346;2022-08-19T00:52:50;96991.91;;;17.18;100.00
42855;BME280;29183;48.038;14.346;2022-08-19T00:55:23;96990.78;;;17.21;100.00
42855;BME280;29183;48.038;14.346;2022-08-19T00:58:08;96999.81;;;17.08;100.00
42855;BME280;29183;48.038;14.346;2022-08-19T01:00:37;96992.91;;;16.99;100.00
42855;BME280;29183;48.038;14.346;2022-08-19T01:03:08;96993.34;;;16.94;100.00
42855;BME280;29183;48.038;14.346;2022-08-19T01:05:39;96994.22;;;16.85;100.00
42855;BME280;29183;48.038;14.346;2022-08-19T01:08:09;97004.16;;;16.90;100.00
42855;BME280;29183;48.038;14.346;2022-08-19T01:10:51;96991.84;;;16.92;100.00
42855;BME280;29183;48.038;14.346;2022-08-19T01:13:23;96987.34;;;16.94;100.00
42855;BME280;29183;48.038;14.346;2022-08-19T01:15:56;96987.53;;;17.01;100.00
42855;BME280;29183;48.038;14.346;2022-08-19T01:18:26;96980.16;;;17.14;100.00
42855;BME280;29183;48.038;14.346;2022-08-19T01:20:58;96979.72;;;17.19;100.00
42855;BME280;29183;48.038;14.346;2022-08-19T01:23:29;96979.97;;;17.34;100.00
42855;BME280;29183;48.038;14.346;2022-08-19T01:26:16;97000.78;;;17.34;100.00
42855;BME280;29183;48.038;14.346;2022-08-19T01:28:46;96999.75;;;17.26;100.00
42855;BME280;29183;48.038;14.346;2022-08-19T01:31:21;96995.06;;;17.30;100.00
42855;BME280;29183;48.038;14.346;2022-08-19T01:33:54;96986.69;;;17.44;100.00
42855;BME280;29183;48.038;14.346;2022-08-19T01:36:37;96998.41;;;17.40;100.00
42855;BME280;29183;48.038;14.346;2022-08-19T01:39:09;96996.09;;;17.37;100.00
42855;BME280;29183;48.038;14.346;2022-08-19T01:41:38;96988.72;;;17.33;100.00
42855;BME280;29183;48.038;14.346;2022-08-19T01:44:08;96990.81;;;17.29;100.00
42855;BME280;29183;48.038;14.346;2022-08-19T01:46:46;96992.88;;;17.17;100.00
42855;BME280;29183;48.038;14.346;2022-08-19T01:49:17;96968.06;;;17.05;100.00
42855;BME280;29183;48.038;14.346;2022-08-19T01:51:48;96951.25;;;16.99;100.00
42855;BME280;29183;48.038;14.346;2022-08-19T01:54:18;96936.66;;;17.06;100.00
42855;BME280;29183;48.038;14.346;2022-08-19T01:56:57;96928.19;;;17.04;100.00
42855;BME280;29183;48.038;14.346;2022-08-19T01:59:27;96951.00;;;16.92;100.00
42855;BME280;29183;48.038;14.346;2022-08-19T02:01:55;96964.63;;;16.86;100.00
42855;BME280;29183;48.038;14.346;2022-08-19T02:04:24;96961.44;;;17.10;100.00
42855;BME280;29183;48.038;14.346;2022-08-19T02:06:53;96953.75;;;17.09;100.00
42855;BME280;29183;48.038;14.346;2022-08-19T02:09:21;96951.25;;;17.25;100.00
42855;BME280;29183;48.038;14.346;2022-08-19T02:11:49;96945.13;;;17.35;100.00
42855;BME280;29183;48.038;14.346;2022-08-19T02:14:18;96940.38;;;17.56;100.00
42855;BME280;29183;48.038;14.346;2022-08-19T02:16:46;96938.78;;;17.64;100.00
42855;BME280;29183;48.038;14.346;2022-08-19T02:19:14;96936.88;;;17.74;100.00
42855;BME280;29183;48.038;14.346;2022-08-19T02:21:42;96920.13;;;17.76;100.00
42855;BME280;29183;48.038;14.346;2022-08-19T02:24:11;96926.75;;;17.62;100.00
42855;BME280;29183;48.038;14.346;2022-08-19T02:26:39;96943.47;;;17.52;100.00
42855;BME280;29183;48.038;14.346;2022-08-19T02:29:08;96963.59;;;17.23;100.00
42855;BME280;29183;48.038;14.346;2022-08-19T02:31:36;96971.47;;;17.05;100.00
42855;BME280;29183;48.038;14.346;2022-08-19T02:34:03;96974.16;;;16.95;100.00
42855;BME280;29183;48.038;14.346;2022-08-19T02:36:33;96977.28;;;16.99;100.00
42855;BME280;29183;48.038;14.346;2022-08-19T02:39:02;96988.03;;;16.86;100.00
42855;BME280;29183;48.038;14.346;2022-08-19T02:41:32;96975.78;;;16.78;100.00
42855;BME280;29183;48.038;14.346;2022-08-19T02:44:02;96967.00;;;16.79;100.00
42855;BME280;29183;48.038;14.346;2022-08-19T02:46:51;96980.69;;;16.81;100.00
42855;BME280;29183;48.038;14.346;2022-08-19T02:49:19;96988.03;;;16.86;100.00
42855;BME280;29183;48.038;14.346;2022-08-19T02:51:48;96984.03;;;16.92;100.00
42855;BME280;29183;48.038;14.346;2022-08-19T02:54:16;96984.56;;;16.95;100.00
42855;BME280;29183;48.038;14.346;2022-08-19T02:56:44;96990.13;;;16.82;100.00
42855;BME280;29183;48.038;14.346;2022-08-19T02:59:14;96978.75;;;16.83;100.00
42855;BME280;29183;48.038;14.346;2022-08-19T03:01:42;96977.78;;;16.84;100.00
42855;BME280;29183;48.038;14.346;2022-08-19T03:04:14;96974.22;;;17.04;100.00
42855;BME280;29183;48.038;14.346;2022-08-19T03:06:45;96979.38;;;16.95;100.00
42855;BME280;29183;48.038;14.346;2022-08-19T03:09:15;96982.31;;;17.01;100.00
42855;BME280;29183;48.038;14.346;2022-08-19T03:11:43;96965.53;;;16.95;100.00
42855;BME280;29183;48.038;14.346;2022-08-19T03:14:14;96979.56;;;16.84;100.00
42855;BME280;29183;48.038;14.346;2022-08-19T03:16:49;96994.00;;;16.60;100.00
42855;BME280;29183;48.038;14.346;2022-08-19T03:19:19;97006.41;;;16.66;100.00
42855;BME280;29183;48.038;14.346;2022-08-19T03:21:49;97000.47;;;16.74;100.00
42855;BME280;29183;48.038;14.346;2022-08-19T03:24:19;96995.47;;;16.63;100.00
42855;BME280;29183;48.038;14.346;2022-08-19T03:26:50;97008.84;;;16.50;100.00
42855;BME280;29183;48.038;14.346;2022-08-19T03:29:20;97008.91;;;16.58;100.00
42855;BME280;29183;48.038;14.346;2022-08-19T03:31:59;97013.84;;;16.61;100.00
42855;BME280;29183;48.038;14.346;2022-08-19T03:34:32;97013.16;;;16.59;100.00
42855;BME280;29183;48.038;14.346;2022-08-19T03:37:07;97003.78;;;16.66;100.00
42855;BME280;29183;48.038;14.346;2022-08-19T03:39:37;97006.19;;;16.60;100.00
42855;BME280;29183;48.038;14.346;2022-08-19T03:42:06;97005.34;;;16.59;100.00
42855;BME280;29183;48.038;14.346;2022-08-19T03:44:54;97003.06;;;16.56;100.00
42855;BME280;29183;48.038;14.346;2022-08-19T03:47:23;97012.63;;;16.56;100.00
42855;BME280;29183;48.038;14.346;2022-08-19T03:49:51;97016.44;;;16.61;100.00
42855;BME280;29183;48.038;14.346;2022-08-19T03:52:20;97022.59;;;16.60;100.00
42855;BME280;29183;48.038;14.346;2022-08-19T03:54:48;97026.13;;;16.69;100.00
42855;BME280;29183;48.038;14.346;2022-08-19T03:57:16;97037.41;;;16.78;100.00
42855;BME280;29183;48.038;14.346;2022-08-19T03:59:44;97050.59;;;16.94;100.00
42855;BME280;29183;48.038;14.346;2022-08-19T04:02:13;97056.47;;;16.96;100.00
42855;BME280;29183;48.038;14.346;2022-08-19T04:04:42;97066.09;;;16.86;100.00
42855;BME280;29183;48.038;14.346;2022-08-19T04:07:13;97074.28;;;16.91;100.00
42855;BME280;29183;48.038;14.346;2022-08-19T04:09:44;97088.34;;;16.98;100.00
42855;BME280;29183;48.038;14.346;2022-08-19T04:12:12;97088.31;;;16.80;100.00
42855;BME280;29183;48.038;14.346;2022-08-19T04:14:40;97092.72;;;16.80;100.00
42855;BME280;29183;48.038;14.346;2022-08-19T04:17:09;97098.00;;;16.88;100.00
42855;BME280;29183;48.038;14.346;2022-08-19T04:19:37;97112.03;;;16.77;100.00
42855;BME280;29183;48.038;14.346;2022-08-19T04:22:06;97113.53;;;16.80;100.00
42855;BME280;29183;48.038;14.346;2022-08-19T04:24:35;97110.94;;;16.80;100.00
42855;BME280;29183;48.038;14.346;2022-08-19T04:27:03;97118.81;;;16.88;100.00
42855;BME280;29183;48.038;14.346;2022-08-19T04:29:33;97142.09;;;16.90;100.00
42855;BME280;29183;48.038;14.346;2022-08-19T04:32:02;97154.78;;;17.03;100.00
42855;BME280;29183;48.038;14.346;2022-08-19T04:34:36;97158.50;;;17.18;100.00
42855;BME280;29183;48.038;14.346;2022-08-19T04:37:26;97159.03;;;17.40;100.00
42855;BME280;29183;48.038;14.346;2022-08-19T04:40:02;97141.19;;;17.45;100.00
42855;BME280;29183;48.038;14.346;2022-08-19T04:42:49;97140.66;;;17.59;100.00
42855;BME280;29183;48.038;14.346;2022-08-19T04:45:17;97132.94;;;17.76;100.00
42855;BME280;29183;48.038;14.346;2022-08-19T04:47:48;97111.25;;;17.93;100.00
42855;BME280;29183;48.038;14.346;2022-08-19T04:50:40;97104.00;;;18.05;100.00
42855;BME280;29183;48.038;14.346;2022-08-19T04:53:10;97111.06;;;18.13;100.00
42855;BME280;29183;48.038;14.346;2022-08-19T04:55:40;97117.44;;;18.19;100.00
42855;BME280;29183;48.038;14.346;2022-08-19T04:58:08;97113.34;;;18.16;100.00
42855;BME280;29183;48.038;14.346;2022-08-19T05:00:39;97105.78;;;18.31;100.00
42855;BME280;29183;48.038;14.346;2022-08-19T05:03:10;97110.59;;;18.52;100.00
42855;BME280;29183;48.038;14.346;2022-08-19T05:05:41;97114.19;;;18.60;100.00
42855;BME280;29183;48.038;14.346;2022-08-19T05:08:12;97106.66;;;18.48;100.00
42855;BME280;29183;48.038;14.346;2022-08-19T05:10:41;97114.84;;;18.53;100.00
42855;BME280;29183;48.038;14.346;2022-08-19T05:13:09;97130.97;;;18.49;100.00
42855;BME280;29183;48.038;14.346;2022-08-19T05:15:38;97122.81;;;18.52;100.00
42855;BME280;29183;48.038;14.346;2022-08-19T05:18:07;97105.81;;;18.39;100.00
42855;BME280;29183;48.038;14.346;2022-08-19T05:20:53;97105.59;;;18.33;100.00
42855;BME280;29183;48.038;14.346;2022-08-19T05:23:40;97105.50;;;18.43;100.00
42855;BME280;29183;48.038;14.346;2022-08-19T05:26:09;97085.47;;;18.51;100.00
42855;BME280;29183;48.038;14.346;2022-08-19T05:28:38;97077.66;;;18.51;100.00
42855;BME280;29183;48.038;14.346;2022-08-19T05:31:07;97071.66;;;18.59;100.00
42855;BME280;29183;48.038;14.346;2022-08-19T05:33:35;97072.44;;;18.60;100.00
42855;BME280;29183;48.038;14.346;2022-08-19T05:36:03;97085.28;;;18.45;100.00
42855;BME280;29183;48.038;14.346;2022-08-19T05:38:32;97077.94;;;18.40;100.00
42855;BME280;29183;48.038;14.346;2022-08-19T05:41:09;97067.03;;;18.45;100.00
42855;BME280;29183;48.038;14.346;2022-08-19T05:43:37;97055.44;;;18.47;100.00
42855;BME280;29183;48.038;14.346;2022-08-19T05:46:06;97048.50;;;18.64;100.00
42855;BME280;29183;48.038;14.346;2022-08-19T05:48:35;97045.44;;;18.77;100.00
42855;BME280;29183;48.038;14.346;2022-08-19T05:51:07;97047.38;;;18.75;100.00
42855;BME280;29183;48.038;14.346;2022-08-19T05:53:36;97038.75;;;18.91;100.00
42855;BME280;29183;48.038;14.346;2022-08-19T05:56:06;97035.38;;;19.15;100.00
42855;BME280;29183;48.038;14.346;2022-08-19T05:58:35;97035.53;;;19.22;100.00
42855;BME280;29183;48.038;14.346;2022-08-19T06:01:09;97051.03;;;19.40;100.00
42855;BME280;29183;48.038;14.346;2022-08-19T06:03:37;97054.78;;;19.54;100.00
42855;BME280;29183;48.038;14.346;2022-08-19T06:06:08;97063.41;;;19.63;100.00
42855;BME280;29183;48.038;14.346;2022-08-19T06:08:37;97065.88;;;19.64;100.00
42855;BME280;29183;48.038;14.346;2022-08-19T06:11:39;97065.00;;;19.80;100.00
42855;BME280;29183;48.038;14.346;2022-08-19T06:14:12;97063.53;;;19.94;100.00
42855;BME280;29183;48.038;14.346;2022-08-19T06:16:42;97053.44;;;19.91;100.00
42855;BME280;29183;48.038;14.346;2022-08-19T06:19:16;97047.69;;;19.96;100.00
42855;BME280;29183;48.038;14.346;2022-08-19T06:21:47;97055.13;;;20.16;100.00
42855;BME280;29183;48.038;14.346;2022-08-19T06:24:18;97060.50;;;20.31;100.00
42855;BME280;29183;48.038;14.346;2022-08-19T06:26:48;97082.66;;;20.43;100.00
42855;BME280;29183;48.038;14.346;2022-08-19T06:29:18;97075.78;;;20.42;100.00
42855;BME280;29183;48.038;14.346;2022-08-19T06:31:52;97077.16;;;20.69;100.00
42855;BME280;29183;48.038;14.346;2022-08-19T06:34:21;97076.19;;;20.31;100.00
42855;BME280;29183;48.038;14.346;2022-08-19T06:36:51;97069.25;;;19.98;100.00
42855;BME280;29183;48.038;14.346;2022-08-19T06:39:23;97061.56;;;20.05;100.00
42855;BME280;29183;48.038;14.346;2022-08-19T06:41:55;97049.75;;;20.49;100.00
42855;BME280;29183;48.038;14.346;2022-08-19T06:44:27;97057.66;;;20.80;100.00
42855;BME280;29183;48.038;14.346;2022-08-19T06:46:57;97071.63;;;20.96;100.00
42855;BME280;29183;48.038;14.346;2022-08-19T06:49:25;97076.50;;;20.99;100.00
42855;BME280;29183;48.038;14.346;2022-08-19T06:51:59;97075.13;;;20.48;100.00
42855;BME280;29183;48.038;14.346;2022-08-19T06:54:28;97085.00;;;20.69;100.00
42855;BME280;29183;48.038;14.346;2022-08-19T06:57:06;97081.72;;;20.75;100.00
42855;BME280;29183;48.038;14.346;2022-08-19T06:59:35;97086.31;;;20.73;100.00
42855;BME280;29183;48.038;14.346;2022-08-19T07:02:05;97090.13;;;20.94;100.00
42855;BME280;29183;48.038;14.346;2022-08-19T07:04:35;97085.50;;;20.96;100.00
42855;BME280;29183;48.038;14.346;2022-08-19T07:07:11;97084.06;;;21.17;100.00
42855;BME280;29183;48.038;14.346;2022-08-19T07:09:48;97100.66;;;20.86;100.00
42855;BME280;29183;48.038;14.346;2022-08-19T07:12:27;97113.19;;;20.03;100.00
42855;BME280;29183;48.038;14.346;2022-08-19T07:14:57;97104.38;;;20.04;100.00
42855;BME280;29183;48.038;14.346;2022-08-19T07:17:26;97106.00;;;20.05;100.00
42855;BME280;29183;48.038;14.346;2022-08-19T07:19:54;97093.22;;;20.18;100.00
42855;BME280;29183;48.038;14.346;2022-08-19T07:22:30;97104.72;;;19.92;100.00
42855;BME280;29183;48.038;14.346;2022-08-19T07:25:00;97100.50;;;19.91;100.00
42855;BME280;29183;48.038;14.346;2022-08-19T07:27:28;97105.88;;;19.90;100.00
42855;BME280;29183;48.038;14.346;2022-08-19T07:29:59;97099.19;;;19.87;100.00
42855;BME280;29183;48.038;14.346;2022-08-19T07:32:27;97086.31;;;20.25;100.00
42855;BME280;29183;48.038;14.346;2022-08-19T07:34:56;97076.94;;;20.00;100.00
42855;BME280;29183;48.038;14.346;2022-08-19T07:37:25;97066.63;;;20.06;100.00
42855;BME280;29183;48.038;14.346;2022-08-19T07:40:00;97064.16;;;20.13;100.00
42855;BME280;29183;48.038;14.346;2022-08-19T07:42:28;97059.91;;;20.12;100.00
42855;BME280;29183;48.038;14.346;2022-08-19T07:44:58;97071.50;;;20.18;100.00
42855;BME280;29183;48.038;14.346;2022-08-19T07:47:26;97076.09;;;20.07;100.00
42855;BME280;29183;48.038;14.346;2022-08-19T07:50:16;97086.97;;;20.27;100.00
42855;BME280;29183;48.038;14.346;2022-08-19T07:52:47;97081.84;;;20.42;100.00
42855;BME280;29183;48.038;14.346;2022-08-19T07:55:23;97079.88;;;20.44;100.00
42855;BME280;29183;48.038;14.346;2022-08-19T07:58:13;97091.91;;;20.22;100.00
42855;BME280;29183;48.038;14.346;2022-08-19T08:00:43;97085.69;;;20.23;100.00
42855;BME280;29183;48.038;14.346;2022-08-19T08:03:12;97067.56;;;20.53;100.00
42855;BME280;29183;48.038;14.346;2022-08-19T08:05:40;97057.63;;;20.49;100.00
42855;BME280;29183;48.038;14.346;2022-08-19T08:08:28;97052.31;;;20.97;100.00
42855;BME280;29183;48.038;14.346;2022-08-19T08:11:18;97054.41;;;21.39;100.00
42855;BME280;29183;48.038;14.346;2022-08-19T08:13:49;97063.28;;;21.77;100.00
42855;BME280;29183;48.038;14.346;2022-08-19T08:16:33;97044.63;;;21.72;100.00
42855;BME280;29183;48.038;14.346;2022-08-19T08:19:13;97038.09;;;22.27;100.00
42855;BME280;29183;48.038;14.346;2022-08-19T08:21:53;97029.78;;;22.39;100.00
42855;BME280;29183;48.038;14.346;2022-08-19T08:24:23;97041.69;;;22.71;100.00
42855;BME280;29183;48.038;14.346;2022-08-19T08:26:54;97038.00;;;23.09;100.00
42855;BME280;29183;48.038;14.346;2022-08-19T08:29:25;97036.44;;;23.65;100.00
42855;BME280;29183;48.038;14.346;2022-08-19T08:32:01;97021.03;;;23.62;100.00
42855;BME280;29183;48.038;14.346;2022-08-19T08:34:40;97012.16;;;23.34;100.00
42855;BME280;29183;48.038;14.346;2022-08-19T08:37:08;97020.88;;;23.41;100.00
42855;BME280;29183;48.038;14.346;2022-08-19T08:39:36;97011.91;;;23.07;100.00
42855;BME280;29183;48.038;14.346;2022-08-19T08:42:22;97009.78;;;23.18;100.00
42855;BME280;29183;48.038;14.346;2022-08-19T08:44:59;97004.34;;;23.19;100.00
42855;BME280;29183;48.038;14.346;2022-08-19T08:47:38;96998.72;;;23.01;100.00
42855;BME280;29183;48.038;14.346;2022-08-19T08:50:13;97000.91;;;23.19;100.00
42855;BME280;29183;48.038;14.346;2022-08-19T08:52:48;96993.69;;;23.27;100.00
42855;BME280;29183;48.038;14.346;2022-08-19T08:55:22;96991.31;;;23.33;100.00
42855;BME280;29183;48.038;14.346;2022-08-19T08:58:00;96998.19;;;23.62;100.00
42855;BME280;29183;48.038;14.346;2022-08-19T09:00:42;96987.25;;;23.58;100.00
42855;BME280;29183;48.038;14.346;2022-08-19T09:03:18;96985.16;;;23.19;100.00
42855;BME280;29183;48.038;14.346;2022-08-19T09:09:05;96999.44;;;23.38;100.00
42855;BME280;29183;48.038;14.346;2022-08-19T09:14:35;97002.94;;;23.80;100.00
42855;BME280;29183;48.038;14.346;2022-08-19T09:17:16;97007.09;;;24.51;100.00
42855;BME280;29183;48.038;14.346;2022-08-19T09:22:30;97007.97;;;25.73;100.00
42855;BME280;29183;48.038;14.346;2022-08-19T09:24:59;97004.59;;;25.32;100.00
42855;BME280;29183;48.038;14.346;2022-08-19T09:27:28;97014.91;;;25.07;100.00
42855;BME280;29183;48.038;14.346;2022-08-19T09:30:10;97028.59;;;26.16;100.00
42855;BME280;29183;48.038;14.346;2022-08-19T09:32:39;97023.94;;;26.05;100.00
42855;BME280;29183;48.038;14.346;2022-08-19T09:35:10;97037.22;;;25.58;100.00
42855;BME280;29183;48.038;14.346;2022-08-19T09:37:38;97033.13;;;25.75;100.00
42855;BME280;29183;48.038;14.346;2022-08-19T09:40:07;97041.66;;;25.71;100.00
42855;BME280;29183;48.038;14.346;2022-08-19T09:42:37;97038.97;;;24.70;100.00
42855;BME280;29183;48.038;14.346;2022-08-19T09:45:18;97041.88;;;25.09;100.00
42855;BME280;29183;48.038;14.346;2022-08-19T09:47:52;97038.63;;;24.93;100.00
42855;BME280;29183;48.038;14.346;2022-08-19T09:50:22;97031.75;;;25.19;100.00
42855;BME280;29183;48.038;14.346;2022-08-19T09:52:51;97026.09;;;25.49;100.00
42855;BME280;29183;48.038;14.346;2022-08-19T09:55:25;97016.53;;;25.41;100.00
42855;BME280;29183;48.038;14.346;2022-08-19T09:58:00;97021.28;;;24.57;100.00
42855;BME280;29183;48.038;14.346;2022-08-19T10:00:30;97033.31;;;23.54;100.00
42855;BME280;29183;48.038;14.346;2022-08-19T10:02:59;97035.09;;;24.17;100.00
42855;BME280;29183;48.038;14.346;2022-08-19T10:05:29;97031.09;;;24.22;100.00
42855;BME280;29183;48.038;14.346;2022-08-19T10:08:30;97025.91;;;24.42;100.00
42855;BME280;29183;48.038;14.346;2022-08-19T10:11:00;97037.00;;;25.26;100.00
42855;BME280;29183;48.038;14.346;2022-08-19T10:13:49;97026.28;;;25.21;100.00
42855;BME280;29183;48.038;14.346;2022-08-19T10:16:20;97031.09;;;24.83;100.00
42855;BME280;29183;48.038;14.346;2022-08-19T10:18:55;97010.03;;;24.97;100.00
42855;BME280;29183;48.038;14.346;2022-08-19T10:21:30;97007.22;;;25.05;100.00
42855;BME280;29183;48.038;14.346;2022-08-19T10:24:00;96998.31;;;25.06;100.00
42855;BME280;29183;48.038;14.346;2022-08-19T10:26:37;96990.56;;;24.91;100.00
42855;BME280;29183;48.038;14.346;2022-08-19T10:29:06;96993.22;;;24.98;100.00
42855;BME280;29183;48.038;14.346;2022-08-19T10:31:35;96992.19;;;24.92;100.00
42855;BME280;29183;48.038;14.346;2022-08-19T10:34:23;96993.22;;;24.98;100.00
42855;BME280;29183;48.038;14.346;2022-08-19T10:36:55;96986.72;;;24.94;100.00
42855;BME280;29183;48.038;14.346;2022-08-19T10:39:28;96973.34;;;24.07;100.00
42855;BME280;29183;48.038;14.346;2022-08-19T10:42:08;96973.03;;;24.43;100.00
42855;BME280;29183;48.038;14.346;2022-08-19T10:44:38;96969.69;;;24.76;100.00
42855;BME280;29183;48.038;14.346;2022-08-19T10:47:07;96970.72;;;25.29;100.00
42855;BME280;29183;48.038;14.346;2022-08-19T10:49:53;96980.03;;;25.25;100.00
42855;BME280;29183;48.038;14.346;2022-08-19T10:52:43;96986.50;;;24.69;100.00
42855;BME280;29183;48.038;14.346;2022-08-19T10:55:19;96989.66;;;24.50;100.00
42855;BME280;29183;48.038;14.346;2022-08-19T10:58:15;96991.69;;;24.42;100.00
42855;BME280;29183;48.038;14.346;2022-08-19T11:00:51;96988.88;;;24.63;100.00
42855;BME280;29183;48.038;14.346;2022-08-19T11:03:20;96987.31;;;24.76;100.00
42855;BME280;29183;48.038;14.346;2022-08-19T11:06:08;96983.28;;;24.87;100.00
42855;BME280;29183;48.038;14.346;2022-08-19T11:08:36;96985.50;;;24.96;100.00
42855;BME280;29183;48.038;14.346;2022-08-19T11:11:06;96986.94;;;24.92;100.00
42855;BME280;29183;48.038;14.346;2022-08-19T11:13:39;96993.31;;;24.56;100.00
42855;BME280;29183;48.038;14.346;2022-08-19T11:16:16;96988.72;;;24.72;100.00
42855;BME280;29183;48.038;14.346;2022-08-19T11:18:49;96984.91;;;24.88;100.00
42855;BME280;29183;48.038;14.346;2022-08-19T11:23:48;96993.81;;;24.18;100.00
42855;BME280;29183;48.038;14.346;2022-08-19T11:26:19;97005.50;;;24.02;100.00
42855;BME280;29183;48.038;14.346;2022-08-19T11:28:48;96985.97;;;24.25;100.00
42855;BME280;29183;48.038;14.346;2022-08-19T11:31:23;96990.84;;;24.34;100.00
42855;BME280;29183;48.038;14.346;2022-08-19T11:33:56;96995.00;;;24.77;100.00
42855;BME280;29183;48.038;14.346;2022-08-19T11:36:25;96990.56;;;24.71;100.00
42855;BME280;29183;48.038;14.346;2022-08-19T11:38:54;96988.13;;;24.70;100.00
42855;BME280;29183;48.038;14.346;2022-08-19T11:41:23;96984.31;;;25.39;100.00
42855;BME280;29183;48.038;14.346;2022-08-19T11:43:53;96982.84;;;25.64;100.00
42855;BME280;29183;48.038;14.346;2022-08-19T11:46:24;96989.72;;;25.78;100.00
42855;BME280;29183;48.038;14.346;2022-08-19T11:48:53;96982.22;;;25.68;100.00
42855;BME280;29183;48.038;14.346;2022-08-19T11:51:24;96996.28;;;25.49;100.00
42855;BME280;29183;48.038;14.346;2022-08-19T11:53:54;96990.97;;;25.62;100.00
42855;BME280;29183;48.038;14.346;2022-08-19T11:56:24;96988.78;;;25.45;100.00
42855;BME280;29183;48.038;14.346;2022-08-19T11:58:53;96984.47;;;25.71;100.00
42855;BME280;29183;48.038;14.346;2022-08-19T12:01:23;96980.00;;;25.65;100.00
42855;BME280;29183;48.038;14.346;2022-08-19T12:03:53;96973.34;;;25.42;100.00
42855;BME280;29183;48.038;14.346;2022-08-19T12:06:25;96964.59;;;25.62;100.00
42855;BME280;29183;48.038;14.346;2022-08-19T12:08:56;96953.41;;;25.67;100.00
42855;BME280;29183;48.038;14.346;2022-08-19T12:11:26;96932.88;;;25.75;100.00
42855;BME280;29183;48.038;14.346;2022-08-19T12:14:00;96933.09;;;25.81;100.00
42855;BME280;29183;48.038;14.346;2022-08-19T12:16:29;96936.38;;;25.69;100.00
42855;BME280;29183;48.038;14.346;2022-08-19T12:19:00;96955.38;;;25.85;100.00
42855;BME280;29183;48.038;14.346;2022-08-19T12:21:33;96966.59;;;25.67;100.00
42855;BME280;29183;48.038;14.346;2022-08-19T12:24:04;96962.56;;;25.57;100.00
42855;BME280;29183;48.038;14.346;2022-08-19T12:26:32;96957.13;;;25.52;100.00
42855;BME280;29183;48.038;14.346;2022-08-19T12:29:20;96944.56;;;26.06;100.00
42855;BME280;29183;48.038;14.346;2022-08-19T12:31:50;96955.56;;;26.42;100.00
42855;BME280;29183;48.038;14.346;2022-08-19T12:34:18;96960.03;;;26.42;100.00
42855;BME280;29183;48.038;14.346;2022-08-19T12:36:48;96967.53;;;26.45;100.00
42855;BME280;29183;48.038;14.346;2022-08-19T12:39:17;96967.56;;;26.70;100.00
42855;BME280;29183;48.038;14.346;2022-08-19T12:41:45;96953.66;;;26.88;100.00
42855;BME280;29183;48.038;14.346;2022-08-19T12:44:21;96935.16;;;26.56;100.00
42855;BME280;29183;48.038;14.346;2022-08-19T12:46:58;96932.13;;;27.10;100.00
42855;BME280;29183;48.038;14.346;2022-08-19T12:49:29;96936.28;;;26.99;100.00
42855;BME280;29183;48.038;14.346;2022-08-19T12:52:18;96937.19;;;26.54;100.00
42855;BME280;29183;48.038;14.346;2022-08-19T12:54:50;96941.22;;;26.31;100.00
42855;BME280;29183;48.038;14.346;2022-08-19T12:57:22;96941.97;;;26.38;100.00
42855;BME280;29183;48.038;14.346;2022-08-19T13:00:15;96955.06;;;26.59;100.00
42855;BME280;29183;48.038;14.346;2022-08-19T13:02:45;96944.47;;;26.91;100.00
42855;BME280;29183;48.038;14.346;2022-08-19T13:05:17;96953.34;;;26.71;100.00
42855;BME280;29183;48.038;14.346;2022-08-19T13:07:51;96956.38;;;26.43;100.00
42855;BME280;29183;48.038;14.346;2022-08-19T13:10:20;96959.00;;;26.43;100.00
42855;BME280;29183;48.038;14.346;2022-08-19T13:12:51;96946.53;;;26.18;100.00
42855;BME280;29183;48.038;14.346;2022-08-19T13:15:21;96950.00;;;25.59;100.00
42855;BME280;29183;48.038;14.346;2022-08-19T13:17:52;96948.81;;;24.95;100.00